createdAt,value
2023-02-07T00:00:54.718Z,104237.38
2023-02-07T00:03:59.150Z,104227.44
2023-02-07T00:07:04.307Z,104232.59
2023-02-07T00:10:09.870Z,104233.47
2023-02-07T00:13:14.053Z,104237.38
2023-02-07T00:16:17.976Z,104238.94
2023-02-07T00:19:21.775Z,104248.22
2023-02-07T00:22:26.978Z,104249.78
2023-02-07T00:25:30.774Z,104243.66
2023-02-07T00:28:35.064Z,104245.63
2023-02-07T00:31:39.358Z,104254.28
2023-02-07T00:34:43.403Z,104243.75
2023-02-07T00:37:48.566Z,104243.09
2023-02-07T00:40:52.401Z,104243.97
2023-02-07T00:43:56.510Z,104234.34
2023-02-07T00:47:00.328Z,104228.09
2023-02-07T00:50:04.178Z,104221.13
2023-02-07T00:53:09.585Z,104223.38
2023-02-07T00:56:13.802Z,104216.22
2023-02-07T00:59:17.508Z,104218.13
2023-02-07T01:02:21.472Z,104216.88
2023-02-07T01:05:26.034Z,104209.41
2023-02-07T01:08:31.292Z,104205.50
2023-02-07T01:11:35.584Z,104218.34
2023-02-07T01:14:39.385Z,104223.72
2023-02-07T01:17:43.264Z,104226.06
2023-02-07T01:20:47.119Z,104228.53
2023-02-07T01:23:56.610Z,104224.38
2023-02-07T01:27:00.418Z,104222.47
2023-02-07T01:30:04.629Z,104226.22
2023-02-07T01:33:08.478Z,104221.53
2023-02-07T01:36:15.258Z,104230.94
2023-02-07T01:39:20.410Z,104225.78
2023-02-07T01:42:28.166Z,104223.22
2023-02-07T01:45:36.729Z,104218.41
2023-02-07T01:48:40.696Z,104220.88
2023-02-07T01:51:50.799Z,104210.38
2023-02-07T01:55:03.989Z,104214.19
2023-02-07T01:58:09.328Z,104210.81
2023-02-07T02:01:23.829Z,104211.63
2023-02-07T02:04:28.018Z,104202.78
2023-02-07T02:07:33.947Z,104211.69
2023-02-07T02:11:09.487Z,104211.91
2023-02-07T02:14:30.807Z,104213.00
2023-02-07T02:17:57.390Z,104211.66
2023-02-07T02:21:59.089Z,104211.16
2023-02-07T02:25:59.422Z,104194.44
2023-02-07T02:30:00.206Z,104196.53
2023-02-07T02:33:36.571Z,104192.66
2023-02-07T02:36:53.921Z,104193.00
2023-02-07T02:40:08.769Z,104193.59
2023-02-07T02:43:22.675Z,104193.81
2023-02-07T02:46:32.802Z,104189.13
2023-02-07T02:49:39.004Z,104183.97
2023-02-07T02:52:50.532Z,104173.16
2023-02-07T02:56:26.837Z,104163.00
2023-02-07T03:00:04.079Z,104168.13
2023-02-07T03:03:52.627Z,104168.59
2023-02-07T03:07:22.828Z,104166.25
2023-02-07T03:10:37.825Z,104161.88
2023-02-07T03:14:00.458Z,104155.50
2023-02-07T03:17:17.331Z,104157.06
2023-02-07T03:20:28.566Z,104161.19
2023-02-07T03:23:36.392Z,104160.97
2023-02-07T03:26:44.624Z,104160.72
2023-02-07T03:29:57.701Z,104159.41
2023-02-07T03:33:11.783Z,104164.31
2023-02-07T03:36:25.310Z,104164.84
2023-02-07T03:39:31.285Z,104166.88
2023-02-07T03:42:41.306Z,104167.00
2023-02-07T03:45:45.221Z,104164.56
2023-02-07T03:48:48.866Z,104174.34
2023-02-07T03:51:53.403Z,104173.91
2023-02-07T03:54:58.497Z,104164.72
2023-02-07T03:58:02.293Z,104166.50
2023-02-07T04:01:06.457Z,104164.25
2023-02-07T04:04:13.506Z,104158.75
2023-02-07T04:07:17.285Z,104148.84
2023-02-07T04:10:22.493Z,104160.56
2023-02-07T04:13:26.256Z,104163.97
2023-02-07T04:16:30.947Z,104166.19
2023-02-07T04:19:34.614Z,104159.47
2023-02-07T04:22:38.334Z,104158.81
2023-02-07T04:25:43.523Z,104157.66
2023-02-07T04:28:47.204Z,104174.22
2023-02-07T04:31:51.045Z,104166.50
2023-02-07T04:34:54.801Z,104167.94
2023-02-07T04:37:58.618Z,104165.00
2023-02-07T04:41:07.268Z,104160.53
2023-02-07T04:44:10.966Z,104156.81
2023-02-07T04:47:15.309Z,104154.75
2023-02-07T04:50:19.984Z,104154.03
2023-02-07T04:53:23.912Z,104158.44
2023-02-07T04:56:29.128Z,104157.13
2023-02-07T04:59:33.128Z,104158.03
2023-02-07T05:02:36.966Z,104162.22
2023-02-07T05:05:42.090Z,104159.09
2023-02-07T05:08:45.832Z,104157.72
2023-02-07T05:11:51.002Z,104168.22
2023-02-07T05:14:54.770Z,104175.81
2023-02-07T05:17:58.667Z,104181.34
2023-02-07T05:21:02.518Z,104180.53
2023-02-07T05:24:06.934Z,104185.06
2023-02-07T05:27:12.373Z,104180.31
2023-02-07T05:30:16.413Z,104177.09
2023-02-07T05:33:20.160Z,104171.72
2023-02-07T05:36:23.808Z,104170.44
2023-02-07T05:39:27.797Z,104169.22
2023-02-07T05:42:32.929Z,104167.53
2023-02-07T05:45:37.873Z,104169.22
2023-02-07T05:48:41.696Z,104176.28
2023-02-07T05:51:45.446Z,104181.19
2023-02-07T05:54:49.157Z,104172.97
2023-02-07T05:57:54.317Z,104176.81
2023-02-07T06:00:58.298Z,104194.22
2023-02-07T06:04:02.014Z,104199.91
2023-02-07T06:07:06.358Z,104195.56
2023-02-07T06:10:11.362Z,104188.81
2023-02-07T06:13:16.518Z,104201.13
2023-02-07T06:16:20.294Z,104202.03
2023-02-07T06:19:23.946Z,104205.00
2023-02-07T06:22:27.772Z,104202.44
2023-02-07T06:25:31.682Z,104206.63
2023-02-07T06:28:36.875Z,104212.19
2023-02-07T06:31:40.627Z,104218.19
2023-02-07T06:34:44.347Z,104210.91
2023-02-07T06:37:48.025Z,104211.53
2023-02-07T06:40:52.139Z,104231.69
2023-02-07T06:43:57.563Z,104230.19
2023-02-07T06:47:01.340Z,104225.28
2023-02-07T06:50:07.598Z,104220.91
2023-02-07T06:53:12.720Z,104234.75
2023-02-07T06:56:18.569Z,104237.59
2023-02-07T06:59:24.011Z,104241.44
2023-02-07T07:02:27.771Z,104245.00
2023-02-07T07:05:32.535Z,104245.16
2023-02-07T07:08:36.258Z,104244.28
2023-02-07T07:11:43.343Z,104244.53
2023-02-07T07:14:48.651Z,104248.47
2023-02-07T07:17:52.441Z,104249.59
2023-02-07T07:20:57.182Z,104237.03
2023-02-07T07:24:00.890Z,104233.47
2023-02-07T07:27:04.745Z,104233.47
2023-02-07T07:30:12.310Z,104240.50
2023-02-07T07:33:16.010Z,104234.44
2023-02-07T07:36:19.824Z,104234.06
2023-02-07T07:39:23.673Z,104246.75
2023-02-07T07:42:27.636Z,104250.31
2023-02-07T07:45:32.775Z,104247.63
2023-02-07T07:48:36.979Z,104259.13
2023-02-07T07:51:40.827Z,104253.22
2023-02-07T07:54:44.555Z,104257.88
2023-02-07T07:57:48.445Z,104250.72
2023-02-07T08:00:53.801Z,104252.44
2023-02-07T08:03:57.543Z,104263.22
2023-02-07T08:07:01.698Z,104255.78
2023-02-07T08:10:06.862Z,104252.00
2023-02-07T08:13:10.810Z,104259.94
2023-02-07T08:16:16.130Z,104260.28
2023-02-07T08:19:19.978Z,104263.25
2023-02-07T08:22:23.711Z,104258.44
2023-02-07T08:25:28.022Z,104260.69
2023-02-07T08:28:32.863Z,104256.53
2023-02-07T08:31:38.102Z,104251.25
2023-02-07T08:34:41.899Z,104250.34
2023-02-07T08:37:45.664Z,104244.31
2023-02-07T08:40:49.651Z,104253.19
2023-02-07T08:43:53.488Z,104247.28
2023-02-07T08:46:58.755Z,104244.81
2023-02-07T08:50:02.523Z,104246.03
2023-02-07T08:53:06.562Z,104246.03
2023-02-07T08:56:11.153Z,104249.09
2023-02-07T08:59:15.264Z,104247.50
2023-02-07T09:02:20.493Z,104241.72
2023-02-07T09:05:24.347Z,104241.72
2023-02-07T09:08:28.172Z,104246.19
2023-02-07T09:11:32.195Z,104251.13
2023-02-07T09:14:36.450Z,104248.22
2023-02-07T09:17:41.866Z,104239.94
2023-02-07T09:20:46.034Z,104235.69
2023-02-07T09:23:50.104Z,104238.72
2023-02-07T09:26:54.027Z,104232.69
2023-02-07T09:29:57.782Z,104235.59
2023-02-07T09:33:02.960Z,104238.59
2023-02-07T09:36:18.248Z,104230.66
2023-02-07T09:39:23.031Z,104225.38
2023-02-07T09:42:37.762Z,104220.91
2023-02-07T09:45:59.316Z,104222.94
2023-02-07T09:49:12.022Z,104219.06
2023-02-07T09:52:23.796Z,104227.38
2023-02-07T09:55:33.680Z,104219.47
2023-02-07T09:58:45.736Z,104216.13
2023-02-07T10:01:55.484Z,104223.22
2023-02-07T10:05:05.513Z,104232.38
2023-02-07T10:08:14.075Z,104230.97
2023-02-07T10:11:30.105Z,104226.88
2023-02-07T10:15:17.695Z,104224.34
2023-02-07T10:18:41.890Z,104223.16
2023-02-07T10:22:02.917Z,104220.75
2023-02-07T10:25:37.941Z,104223.84
2023-02-07T10:29:32.191Z,104220.00
2023-02-07T10:32:40.149Z,104224.59
2023-02-07T10:35:46.357Z,104211.09
2023-02-07T10:39:08.818Z,104213.66
2023-02-07T10:42:18.193Z,104212.88
2023-02-07T10:45:30.574Z,104213.56
2023-02-07T10:48:34.720Z,104219.00
2023-02-07T10:51:44.322Z,104211.19
2023-02-07T10:54:56.861Z,104201.63
2023-02-07T10:58:08.632Z,104193.91
2023-02-07T11:01:24.070Z,104194.94
2023-02-07T11:04:37.765Z,104192.41
2023-02-07T11:07:47.673Z,104197.06
2023-02-07T11:10:56.540Z,104191.75
2023-02-07T11:14:07.441Z,104179.91
2023-02-07T11:17:22.657Z,104184.63
2023-02-07T11:20:31.988Z,104186.94
2023-02-07T11:23:36.071Z,104184.25
2023-02-07T11:26:54.822Z,104176.63
2023-02-07T11:30:06.994Z,104179.47
2023-02-07T11:33:20.559Z,104170.94
2023-02-07T11:36:32.871Z,104158.06
2023-02-07T11:39:36.566Z,104154.16
2023-02-07T11:42:42.406Z,104148.19
2023-02-07T11:45:51.172Z,104150.34
2023-02-07T11:48:58.936Z,104141.66
2023-02-07T11:52:04.485Z,104140.94
2023-02-07T11:55:19.379Z,104136.13
2023-02-07T11:58:35.187Z,104133.59
2023-02-07T12:01:39.765Z,104125.84
2023-02-07T12:04:44.273Z,104127.88
2023-02-07T12:07:52.357Z,104121.38
2023-02-07T12:11:03.785Z,104122.94
2023-02-07T12:14:18.862Z,104118.63
2023-02-07T12:17:39.210Z,104119.69
2023-02-07T12:20:56.759Z,104120.00
2023-02-07T12:24:23.358Z,104112.41
2023-02-07T12:27:36.648Z,104112.63
2023-02-07T12:30:47.917Z,104102.41
2023-02-07T12:33:59.962Z,104100.84
2023-02-07T12:37:16.472Z,104101.69
2023-02-07T12:40:32.927Z,104103.69
2023-02-07T12:43:41.763Z,104105.31
2023-02-07T12:47:02.076Z,104096.56
2023-02-07T12:50:29.519Z,104093.00
2023-02-07T12:54:01.644Z,104098.75
2023-02-07T12:57:14.132Z,104103.13
2023-02-07T13:00:28.045Z,104098.34
2023-02-07T13:04:08.304Z,104094.31
2023-02-07T13:07:29.874Z,104091.31
2023-02-07T13:10:52.411Z,104106.19
2023-02-07T13:14:16.775Z,104098.69
2023-02-07T13:17:39.717Z,104092.22
2023-02-07T13:21:01.849Z,104088.47
2023-02-07T13:24:10.013Z,104087.91
2023-02-07T13:27:20.761Z,104085.09
2023-02-07T13:30:26.432Z,104082.72
2023-02-07T13:33:36.790Z,104079.16
2023-02-07T13:36:45.953Z,104082.72
2023-02-07T13:40:00.166Z,104087.69
2023-02-07T13:43:12.273Z,104089.44
2023-02-07T13:46:55.990Z,104083.66
2023-02-07T13:50:13.978Z,104082.78
2023-02-07T13:53:45.175Z,104080.19
2023-02-07T13:57:17.497Z,104082.38
2023-02-07T14:00:25.313Z,104075.91
2023-02-07T14:03:32.874Z,104071.78
2023-02-07T14:06:40.187Z,104076.97
2023-02-07T14:09:50.190Z,104079.41
2023-02-07T14:12:54.191Z,104082.22
2023-02-07T14:16:07.689Z,104073.22
2023-02-07T14:19:14.478Z,104081.09
2023-02-07T14:22:22.732Z,104078.91
2023-02-07T14:25:41.281Z,104079.50
2023-02-07T14:28:46.333Z,104079.34
2023-02-07T14:31:51.792Z,104095.44
2023-02-07T14:35:08.003Z,104092.75
2023-02-07T14:38:26.865Z,104091.78
2023-02-07T14:41:35.379Z,104090.00
2023-02-07T14:44:43.670Z,104095.69
2023-02-07T14:47:48.026Z,104092.44
2023-02-07T14:50:54.838Z,104099.06
2023-02-07T14:54:08.107Z,104095.94
2023-02-07T14:57:35.336Z,104100.91
2023-02-07T15:00:47.246Z,104096.66
2023-02-07T15:04:03.640Z,104099.16
2023-02-07T15:07:14.320Z,104099.88
2023-02-07T15:10:24.713Z,104111.47
2023-02-07T15:13:34.084Z,104102.88
2023-02-07T15:16:38.589Z,104099.94
2023-02-07T15:19:43.863Z,104100.84
2023-02-07T15:22:51.317Z,104103.44
2023-02-07T15:25:55.943Z,104101.56
2023-02-07T15:29:05.394Z,104101.06
2023-02-07T15:32:22.912Z,104098.13
2023-02-07T15:35:29.789Z,104091.44
2023-02-07T15:38:33.819Z,104096.09
2023-02-07T15:41:37.572Z,104103.88
2023-02-07T15:44:52.448Z,104097.22
2023-02-07T15:48:00.763Z,104096.22
2023-02-07T15:51:07.202Z,104097.34
2023-02-07T15:54:18.603Z,104097.38
2023-02-07T15:57:28.554Z,104100.38
2023-02-07T16:00:40.579Z,104099.78
2023-02-07T16:03:47.202Z,104104.88
2023-02-07T16:07:01.756Z,104105.91
2023-02-07T16:10:20.882Z,104104.22
2023-02-07T16:13:24.918Z,104106.25
2023-02-07T16:16:35.582Z,104102.59
2023-02-07T16:19:47.774Z,104105.81
2023-02-07T16:22:52.654Z,104098.84
2023-02-07T16:25:58.621Z,104088.75
2023-02-07T16:29:02.529Z,104096.56
2023-02-07T16:32:07.774Z,104090.94
2023-02-07T16:35:20.513Z,104089.84
2023-02-07T16:38:24.228Z,104096.22
2023-02-07T16:41:32.524Z,104089.66
2023-02-07T16:44:37.887Z,104087.31
2023-02-07T16:47:43.635Z,104093.69
2023-02-07T16:50:47.498Z,104093.69
2023-02-07T16:53:51.491Z,104099.97
2023-02-07T16:57:01.461Z,104099.47
2023-02-07T17:00:08.795Z,104099.19
2023-02-07T17:03:16.687Z,104093.66
2023-02-07T17:06:23.068Z,104100.19
2023-02-07T17:09:27.729Z,104098.41
2023-02-07T17:12:31.409Z,104089.88
2023-02-07T17:15:35.995Z,104086.88
2023-02-07T17:18:41.416Z,104095.53
2023-02-07T17:21:45.659Z,104095.94
2023-02-07T17:24:49.351Z,104097.13
2023-02-07T17:27:53.074Z,104097.44
2023-02-07T17:30:57.301Z,104102.25
2023-02-07T17:34:02.662Z,104109.59
2023-02-07T17:37:06.380Z,104101.78
2023-02-07T17:40:27.493Z,104111.91
2023-02-07T17:43:31.410Z,104109.31
2023-02-07T17:46:35.074Z,104106.75
2023-02-07T17:49:40.295Z,104110.88
2023-02-07T17:52:43.978Z,104111.47
2023-02-07T17:55:47.915Z,104114.34
2023-02-07T17:58:51.948Z,104112.53
2023-02-07T18:01:55.654Z,104117.31
2023-02-07T18:05:00.762Z,104112.44
2023-02-07T18:08:05.082Z,104099.13
2023-02-07T18:11:12.604Z,104100.19
2023-02-07T18:14:16.425Z,104097.09
2023-02-07T18:17:20.658Z,104111.34
2023-02-07T18:20:28.512Z,104108.56
2023-02-07T18:23:32.362Z,104108.56
2023-02-07T18:26:36.234Z,104109.13
2023-02-07T18:29:39.972Z,104111.41
2023-02-07T18:32:43.924Z,104107.72
2023-02-07T18:35:51.498Z,104107.50
2023-02-07T18:38:55.255Z,104111.63
2023-02-07T18:41:58.981Z,104111.22
2023-02-07T18:45:03.812Z,104121.88
2023-02-07T18:48:08.504Z,104115.50
2023-02-07T18:51:16.749Z,104120.16
2023-02-07T18:54:21.553Z,104125.97
2023-02-07T18:57:25.306Z,104122.41
2023-02-07T19:00:29.018Z,104128.31
2023-02-07T19:03:33.502Z,104117.00
2023-02-07T19:06:39.163Z,104123.63
2023-02-07T19:09:43.960Z,104132.03
2023-02-07T19:12:47.914Z,104139.53
2023-02-07T19:15:51.664Z,104142.78
2023-02-07T19:19:12.575Z,104137.53
2023-02-07T19:22:34.975Z,104138.41
2023-02-07T19:25:47.568Z,104133.94
2023-02-07T19:28:52.295Z,104120.72
2023-02-07T19:31:56.431Z,104120.50
2023-02-07T19:35:00.106Z,104119.88
2023-02-07T19:38:05.786Z,104120.31
2023-02-07T19:41:10.735Z,104118.97
2023-02-07T19:44:14.732Z,104128.03
2023-02-07T19:47:18.679Z,104126.81
2023-02-07T19:50:22.538Z,104122.47
2023-02-07T19:53:29.142Z,104121.69
2023-02-07T19:56:34.658Z,104114.53
2023-02-07T19:59:38.482Z,104118.66
2023-02-07T20:02:42.182Z,104108.38
2023-02-07T20:05:47.196Z,104109.16
2023-02-07T20:08:53.060Z,104100.34
2023-02-07T20:11:56.982Z,104102.91
2023-02-07T20:15:00.668Z,104098.66
2023-02-07T20:18:04.522Z,104102.03
2023-02-07T20:21:15.568Z,104110.50
2023-02-07T20:24:20.694Z,104105.38
2023-02-07T20:27:25.536Z,104106.38
2023-02-07T20:30:29.582Z,104105.56
2023-02-07T20:33:35.580Z,104104.13
2023-02-07T20:36:42.256Z,104101.75
2023-02-07T20:39:47.489Z,104103.25
2023-02-07T20:42:51.313Z,104104.13
2023-02-07T20:46:06.776Z,104105.09
2023-02-07T20:49:16.690Z,104103.56
2023-02-07T20:52:20.460Z,104104.22
2023-02-07T20:55:25.942Z,104105.09
2023-02-07T20:58:29.761Z,104109.16
2023-02-07T21:01:35.710Z,104104.00
2023-02-07T21:04:39.597Z,104100.09
2023-02-07T21:07:43.327Z,104106.34
2023-02-07T21:10:48.459Z,104112.16
2023-02-07T21:13:54.133Z,104107.47
2023-02-07T21:17:02.499Z,104108.03
2023-02-07T21:20:10.175Z,104112.72
2023-02-07T21:23:13.967Z,104110.94
2023-02-07T21:26:19.914Z,104113.28
2023-02-07T21:29:24.352Z,104108.03
2023-02-07T21:32:28.146Z,104103.56
2023-02-07T21:35:32.016Z,104110.50
2023-02-07T21:38:35.874Z,104112.03
2023-02-07T21:41:44.778Z,104115.41
2023-02-07T21:44:48.522Z,104107.59
2023-02-07T21:47:52.361Z,104103.44
2023-02-07T21:51:03.634Z,104108.25
2023-02-07T21:54:08.489Z,104114.84
2023-02-07T21:57:13.644Z,104118.88
2023-02-07T22:00:17.900Z,104125.53
2023-02-07T22:03:21.694Z,104124.56
2023-02-07T22:06:25.775Z,104126.09
2023-02-07T22:09:29.510Z,104123.75
2023-02-07T22:12:35.624Z,104122.22
2023-02-07T22:15:39.385Z,104125.53
2023-02-07T22:18:44.360Z,104125.31
2023-02-07T22:21:50.454Z,104129.31
2023-02-07T22:24:54.186Z,104121.50
2023-02-07T22:27:59.378Z,104125.44
2023-02-07T22:31:03.180Z,104131.53
2023-02-07T22:34:11.217Z,104126.03
2023-02-07T22:37:14.872Z,104126.84
2023-02-07T22:40:18.782Z,104121.69
2023-02-07T22:43:23.908Z,104116.19
2023-02-07T22:46:27.895Z,104118.66
2023-02-07T22:49:31.702Z,104118.66
2023-02-07T22:52:35.449Z,104115.75
2023-02-07T22:55:40.144Z,104111.25
2023-02-07T22:58:45.717Z,104110.16
2023-02-07T23:01:49.362Z,104110.03
2023-02-07T23:04:52.962Z,104111.69
2023-02-07T23:07:56.773Z,104113.81
2023-02-07T23:11:00.480Z,104119.59
2023-02-07T23:14:06.647Z,104121.50
2023-02-07T23:17:10.522Z,104123.69
2023-02-07T23:20:14.240Z,104119.13
2023-02-07T23:23:18.082Z,104117.34
2023-02-07T23:26:25.946Z,104119.91
2023-02-07T23:29:31.057Z,104120.78
2023-02-07T23:32:34.803Z,104119.38
2023-02-07T23:35:38.950Z,104121.13
2023-02-07T23:38:42.728Z,104114.34
2023-02-07T23:41:46.610Z,104114.78
2023-02-07T23:44:51.713Z,104115.53
2023-02-07T23:47:55.474Z,104116.06
2023-02-07T23:51:00.142Z,104111.84
2023-02-07T23:54:03.821Z,104108.91
2023-02-07T23:57:07.502Z,104099.03
